createdAt,value
2022-08-23T00:01:22.333Z,22.55
2022-08-23T00:03:52.968Z,22.54
2022-08-23T00:06:22.691Z,22.52
2022-08-23T00:08:51.243Z,22.50
2022-08-23T00:11:27.428Z,22.50
2022-08-23T00:13:55.281Z,22.49
2022-08-23T00:16:23.371Z,22.48
2022-08-23T00:18:51.243Z,22.46
2022-08-23T00:21:19.132Z,22.44
2022-08-23T00:23:48.308Z,22.43
2022-08-23T00:26:16.034Z,22.43
2022-08-23T00:28:43.686Z,22.40
2022-08-23T00:31:11.438Z,22.40
2022-08-23T00:33:39.182Z,22.40
2022-08-23T00:36:06.914Z,22.38
2022-08-23T00:38:35.252Z,22.35
2022-08-23T00:41:05.525Z,22.33
2022-08-23T00:43:54.314Z,22.34
2022-08-23T00:46:58.325Z,22.31
2022-08-23T00:49:26.658Z,22.30
2022-08-23T00:52:01.109Z,22.29
2022-08-23T00:54:31.120Z,22.27
2022-08-23T00:57:04.786Z,22.26
2022-08-23T00:59:32.910Z,22.25
2022-08-23T01:02:01.504Z,22.24
2022-08-23T01:04:33.247Z,22.23
2022-08-23T01:07:04.988Z,22.20
2022-08-23T01:09:32.893Z,22.21
2022-08-23T01:12:08.010Z,22.19
2022-08-23T01:14:39.749Z,22.18
2022-08-23T01:17:13.836Z,22.17
2022-08-23T01:19:48.541Z,22.14
2022-08-23T01:22:21.787Z,22.14
2022-08-23T01:25:07.007Z,22.12
2022-08-23T01:27:36.609Z,22.10
2022-08-23T01:30:05.779Z,22.08
2022-08-23T01:32:36.771Z,22.07
2022-08-23T01:35:06.463Z,22.05
2022-08-23T01:37:35.095Z,22.04
2022-08-23T01:40:05.086Z,22.03
2022-08-23T01:42:32.923Z,22.00
2022-08-23T01:45:01.328Z,21.98
2022-08-23T01:47:29.501Z,21.95
2022-08-23T01:49:57.272Z,21.97
2022-08-23T01:52:24.958Z,21.96
2022-08-23T01:54:52.625Z,21.94
2022-08-23T01:57:21.861Z,21.92
2022-08-23T01:59:49.609Z,21.91
2022-08-23T02:02:17.331Z,21.89
2022-08-23T02:04:45.043Z,21.89
2022-08-23T02:07:12.718Z,21.87
2022-08-23T02:09:40.521Z,21.86
2022-08-23T02:12:08.542Z,21.84
2022-08-23T02:14:42.001Z,21.83
2022-08-23T02:17:10.054Z,21.81
2022-08-23T02:19:39.423Z,21.81
2022-08-23T02:22:09.189Z,21.79
2022-08-23T02:24:41.618Z,21.79
2022-08-23T02:27:10.048Z,21.77
2022-08-23T02:29:39.966Z,21.77
2022-08-23T02:32:07.969Z,21.73
2022-08-23T02:34:37.670Z,21.65
2022-08-23T02:37:06.159Z,21.73
2022-08-23T02:39:34.299Z,21.70
2022-08-23T02:42:02.355Z,21.69
2022-08-23T02:44:34.546Z,21.69
2022-08-23T02:47:07.638Z,21.68
2022-08-23T02:49:35.614Z,21.66
2022-08-23T02:52:03.615Z,21.66
2022-08-23T02:54:31.296Z,21.64
2022-08-23T02:56:59.071Z,21.63
2022-08-23T02:59:26.947Z,21.62
2022-08-23T03:01:54.872Z,21.60
2022-08-23T03:04:25.548Z,21.59
2022-08-23T03:06:53.275Z,21.59
2022-08-23T03:09:21.031Z,21.58
2022-08-23T03:11:50.553Z,21.57
2022-08-23T03:14:18.257Z,21.57
2022-08-23T03:16:45.966Z,21.56
2022-08-23T03:19:14.251Z,21.54
2022-08-23T03:21:43.743Z,21.53
2022-08-23T03:24:12.262Z,21.52
2022-08-23T03:26:43.440Z,21.52
2022-08-23T03:29:11.230Z,21.51
2022-08-23T03:31:38.921Z,21.47
2022-08-23T03:34:06.794Z,21.50
2022-08-23T03:36:34.762Z,21.47
2022-08-23T03:39:05.170Z,21.44
2022-08-23T03:41:32.946Z,21.46
2022-08-23T03:44:00.618Z,21.44
2022-08-23T03:46:30.967Z,21.43
2022-08-23T03:49:03.081Z,21.42
2022-08-23T03:51:32.121Z,21.42
2022-08-23T03:53:59.882Z,21.40
2022-08-23T03:56:31.457Z,21.39
2022-08-23T03:59:01.848Z,21.38
2022-08-23T04:01:29.642Z,21.37
2022-08-23T04:03:59.895Z,21.37
2022-08-23T04:06:28.129Z,21.35
2022-08-23T04:08:56.889Z,21.35
2022-08-23T04:11:25.426Z,21.33
2022-08-23T04:13:54.476Z,21.32
2022-08-23T04:16:22.184Z,21.32
2022-08-23T04:18:50.491Z,21.32
2022-08-23T04:21:22.474Z,21.29
2022-08-23T04:23:50.478Z,21.29
2022-08-23T04:26:18.210Z,21.29
2022-08-23T04:28:45.877Z,21.27
2022-08-23T04:31:15.455Z,21.26
2022-08-23T04:33:43.135Z,21.27
2022-08-23T04:36:10.846Z,21.25
2022-08-23T04:38:38.640Z,21.24
2022-08-23T04:41:24.020Z,21.24
2022-08-23T04:43:51.763Z,21.23
2022-08-23T04:46:20.819Z,21.22
2022-08-23T04:48:49.048Z,21.22
2022-08-23T04:51:16.831Z,21.21
2022-08-23T04:53:45.086Z,21.19
2022-08-23T04:56:12.998Z,21.18
2022-08-23T04:58:41.225Z,21.18
2022-08-23T05:01:10.811Z,21.16
2022-08-23T05:03:39.983Z,21.17
2022-08-23T05:06:07.919Z,21.16
2022-08-23T05:08:36.410Z,21.16
2022-08-23T05:11:05.458Z,21.16
2022-08-23T05:13:34.744Z,21.17
2022-08-23T05:16:04.313Z,21.13
2022-08-23T05:18:32.321Z,21.11
2022-08-23T05:21:01.986Z,21.12
2022-08-23T05:23:32.315Z,21.13
2022-08-23T05:26:00.957Z,21.12
2022-08-23T05:28:32.033Z,21.09
2022-08-23T05:31:02.152Z,21.10
2022-08-23T05:33:31.184Z,21.10
2022-08-23T05:35:59.358Z,21.09
2022-08-23T05:38:28.763Z,21.07
2022-08-23T05:40:59.783Z,21.06
2022-08-23T05:43:27.866Z,21.06
2022-08-23T05:46:02.202Z,21.03
2022-08-23T05:48:31.920Z,21.05
2022-08-23T05:51:10.842Z,21.04
2022-08-23T05:53:40.439Z,21.03
2022-08-23T05:56:13.021Z,21.03
2022-08-23T05:58:41.995Z,21.03
2022-08-23T06:01:10.337Z,21.03
2022-08-23T06:03:38.086Z,21.03
2022-08-23T06:06:06.991Z,21.01
2022-08-23T06:08:35.564Z,21.02
2022-08-23T06:11:07.603Z,21.01
2022-08-23T06:13:35.625Z,20.99
2022-08-23T06:16:14.658Z,20.99
2022-08-23T06:18:44.424Z,21.00
2022-08-23T06:21:13.742Z,20.98
2022-08-23T06:23:42.411Z,21.00
2022-08-23T06:26:17.099Z,21.01
2022-08-23T06:28:51.166Z,21.01
2022-08-23T06:31:40.801Z,20.98
2022-08-23T06:34:08.628Z,21.01
2022-08-23T06:36:37.344Z,21.00
2022-08-23T06:39:05.686Z,21.02
2022-08-23T06:41:35.140Z,21.04
2022-08-23T06:44:03.958Z,21.06
2022-08-23T06:46:33.022Z,21.07
2022-08-23T06:49:05.081Z,21.11
2022-08-23T06:51:35.258Z,21.13
2022-08-23T06:54:06.225Z,21.17
2022-08-23T06:56:36.509Z,21.20
2022-08-23T06:59:06.078Z,21.21
2022-08-23T07:01:46.736Z,21.25
2022-08-23T07:04:17.483Z,21.27
2022-08-23T07:06:45.874Z,21.30
2022-08-23T07:09:13.945Z,21.33
2022-08-23T07:11:43.208Z,21.37
2022-08-23T07:14:15.542Z,21.40
2022-08-23T07:16:46.500Z,21.41
2022-08-23T07:19:14.325Z,21.44
2022-08-23T07:21:42.831Z,21.45
2022-08-23T07:24:10.583Z,21.49
2022-08-23T07:26:39.232Z,21.51
2022-08-23T07:29:11.219Z,21.53
2022-08-23T07:31:42.357Z,21.56
2022-08-23T07:34:10.746Z,21.57
2022-08-23T07:36:40.534Z,21.59
2022-08-23T07:39:09.139Z,21.61
2022-08-23T07:41:38.779Z,21.61
2022-08-23T07:44:09.667Z,21.64
2022-08-23T07:46:40.207Z,21.65
2022-08-23T07:49:09.962Z,21.64
2022-08-23T07:51:38.714Z,21.68
2022-08-23T07:54:09.495Z,21.68
2022-08-23T07:56:37.237Z,21.67
2022-08-23T07:59:05.550Z,21.66
2022-08-23T08:01:34.860Z,21.67
2022-08-23T08:04:04.319Z,21.66
2022-08-23T08:06:35.534Z,21.61
2022-08-23T08:09:03.933Z,21.63
2022-08-23T08:11:35.300Z,21.64
2022-08-23T08:14:05.086Z,21.66
2022-08-23T08:16:36.530Z,21.65
2022-08-23T08:19:07.756Z,21.67
2022-08-23T08:21:38.879Z,21.68
2022-08-23T08:24:12.880Z,21.69
2022-08-23T08:26:41.590Z,21.71
2022-08-23T08:29:11.960Z,21.71
2022-08-23T08:31:43.185Z,21.74
2022-08-23T08:34:12.558Z,21.75
2022-08-23T08:36:43.996Z,21.75
2022-08-23T08:39:13.518Z,21.74
2022-08-23T08:42:04.445Z,21.76
2022-08-23T08:44:41.162Z,21.80
2022-08-23T08:47:16.723Z,21.80
2022-08-23T08:49:50.403Z,21.82
2022-08-23T08:52:25.003Z,21.84
2022-08-23T08:55:00.896Z,21.87
2022-08-23T08:57:31.890Z,21.87
2022-08-23T09:00:02.316Z,21.89
2022-08-23T09:02:34.899Z,21.91
2022-08-23T09:05:05.121Z,21.92
2022-08-23T09:07:44.254Z,21.96
2022-08-23T09:10:43.583Z,21.99
2022-08-23T09:13:33.562Z,22.02
2022-08-23T09:16:09.714Z,22.06
2022-08-23T09:18:39.178Z,22.07
2022-08-23T09:21:09.567Z,22.10
2022-08-23T09:23:42.403Z,22.13
2022-08-23T09:26:19.661Z,22.17
2022-08-23T09:28:47.975Z,22.19
2022-08-23T09:31:41.354Z,22.23
2022-08-23T09:34:12.054Z,22.26
2022-08-23T09:36:39.944Z,22.29
2022-08-23T09:39:09.900Z,22.33
2022-08-23T09:41:41.500Z,22.36
2022-08-23T09:44:13.418Z,22.40
2022-08-23T09:46:42.889Z,22.38
2022-08-23T09:49:32.798Z,22.49
2022-08-23T09:52:10.302Z,22.53
2022-08-23T09:54:38.647Z,22.58
2022-08-23T09:57:10.350Z,22.62
2022-08-23T09:59:42.459Z,22.67
2022-08-23T10:02:18.437Z,22.74
2022-08-23T10:04:59.761Z,22.78
2022-08-23T10:07:33.877Z,22.82
2022-08-23T10:10:18.549Z,22.88
2022-08-23T10:12:46.715Z,22.95
2022-08-23T10:15:15.675Z,23.03
2022-08-23T10:17:52.721Z,23.05
2022-08-23T10:20:33.849Z,23.11
2022-08-23T10:23:14.455Z,23.16
2022-08-23T10:25:46.186Z,23.17
2022-08-23T10:28:40.225Z,23.20
2022-08-23T10:31:15.466Z,23.26
2022-08-23T10:33:48.006Z,23.30
2022-08-23T10:36:24.390Z,23.43
2022-08-23T10:38:57.761Z,23.47
2022-08-23T10:41:48.268Z,23.52
2022-08-23T10:44:29.312Z,23.54
2022-08-23T10:47:12.069Z,23.59
2022-08-23T10:49:42.154Z,23.66
2022-08-23T10:52:16.734Z,23.71
2022-08-23T10:54:59.329Z,23.78
2022-08-23T10:57:33.267Z,23.85
2022-08-23T11:00:02.875Z,23.89
2022-08-23T11:02:42.668Z,23.97
2022-08-23T11:05:20.963Z,24.06
2022-08-23T11:08:03.806Z,24.09
2022-08-23T11:10:55.764Z,24.09
2022-08-23T11:13:26.686Z,24.13
2022-08-23T11:16:01.009Z,24.18
2022-08-23T11:18:42.714Z,24.14
2022-08-23T11:21:44.355Z,24.21
2022-08-23T11:24:35.457Z,24.20
2022-08-23T11:27:07.679Z,24.33
2022-08-23T11:29:46.160Z,24.32
2022-08-23T11:32:30.099Z,24.40
2022-08-23T11:35:08.687Z,24.52
2022-08-23T11:37:57.093Z,24.55
2022-08-23T11:40:56.532Z,24.64
2022-08-23T11:43:29.098Z,24.72
2022-08-23T11:46:26.583Z,24.79
2022-08-23T11:49:03.008Z,24.82
2022-08-23T11:51:38.470Z,24.86
2022-08-23T11:54:22.998Z,24.88
2022-08-23T11:57:08.395Z,24.92
2022-08-23T11:59:56.112Z,24.94
2022-08-23T12:02:53.186Z,24.99
2022-08-23T12:05:32.263Z,25.03
2022-08-23T12:08:31.131Z,25.03
2022-08-23T12:11:03.172Z,25.04
2022-08-23T12:13:47.398Z,25.06
2022-08-23T12:16:34.629Z,25.03
2022-08-23T12:19:25.859Z,25.06
2022-08-23T12:21:55.738Z,25.07
2022-08-23T12:24:30.038Z,25.11
2022-08-23T12:27:09.614Z,25.14
2022-08-23T12:29:50.071Z,25.16
2022-08-23T12:32:23.910Z,25.17
2022-08-23T12:35:07.159Z,25.18
2022-08-23T12:37:41.645Z,25.22
2022-08-23T12:40:14.605Z,25.26
2022-08-23T12:42:43.121Z,25.26
2022-08-23T12:45:18.443Z,25.36
2022-08-23T12:47:57.497Z,25.45
2022-08-23T12:50:32.627Z,25.52
2022-08-23T12:53:03.761Z,25.54
2022-08-23T12:55:34.330Z,25.57
2022-08-23T12:58:02.834Z,25.57
2022-08-23T13:00:35.658Z,25.57
2022-08-23T13:03:06.902Z,25.61
2022-08-23T13:05:41.808Z,25.59
2022-08-23T13:08:12.199Z,25.59
2022-08-23T13:10:43.544Z,25.59
2022-08-23T13:13:14.218Z,25.59
2022-08-23T13:15:47.183Z,25.62
2022-08-23T13:18:29.490Z,25.66
2022-08-23T13:21:39.707Z,25.66
2022-08-23T13:24:38.404Z,25.67
2022-08-23T13:27:15.726Z,25.71
2022-08-23T13:29:55.334Z,25.77
2022-08-23T13:32:40.170Z,25.79
2022-08-23T13:35:36.015Z,25.85
2022-08-23T13:38:20.481Z,25.89
2022-08-23T13:40:56.105Z,25.91
2022-08-23T13:43:27.226Z,25.93
2022-08-23T13:45:57.318Z,25.96
2022-08-23T13:48:30.223Z,25.99
2022-08-23T13:51:20.518Z,26.03
2022-08-23T13:53:48.584Z,26.07
2022-08-23T13:56:16.520Z,26.10
2022-08-23T13:58:44.430Z,26.12
2022-08-23T14:01:18.254Z,26.14
2022-08-23T14:03:47.399Z,26.14
2022-08-23T14:06:15.121Z,26.14
2022-08-23T14:08:42.828Z,26.13
2022-08-23T14:11:12.059Z,26.16
2022-08-23T14:13:40.632Z,26.18
2022-08-23T14:21:47.019Z,26.32
2022-08-23T14:24:14.804Z,26.36
2022-08-23T14:26:50.107Z,26.39
2022-08-23T14:29:20.011Z,26.41
2022-08-23T14:31:50.495Z,26.41
2022-08-23T14:34:19.606Z,26.41
2022-08-23T14:39:35.417Z,26.42
2022-08-23T14:42:03.599Z,26.45
2022-08-23T14:44:34.296Z,26.45
2022-08-23T14:47:03.923Z,26.46
2022-08-23T14:49:33.255Z,26.47
2022-08-23T14:52:00.951Z,26.49
2022-08-23T14:54:28.810Z,26.50
2022-08-23T14:56:56.698Z,26.49
2022-08-23T14:59:24.379Z,26.49
2022-08-23T15:01:54.468Z,26.50
2022-08-23T15:04:24.683Z,26.53
2022-08-23T15:07:16.291Z,26.56
2022-08-23T15:09:43.115Z,26.57
2022-08-23T15:14:59.359Z,26.58
2022-08-23T15:17:31.259Z,26.57
2022-08-23T15:19:59.632Z,26.61
2022-08-23T15:22:28.677Z,26.62
2022-08-23T15:24:56.351Z,26.64
2022-08-23T15:27:25.570Z,26.66
2022-08-23T15:29:53.654Z,26.68
2022-08-23T15:32:22.280Z,26.70
2022-08-23T15:34:50.701Z,26.69
2022-08-23T15:37:21.251Z,26.72
2022-08-23T15:39:50.462Z,26.72
2022-08-23T15:42:20.145Z,26.67
2022-08-23T15:44:48.592Z,26.72
2022-08-23T15:47:21.351Z,26.72
2022-08-23T15:49:49.702Z,26.74
2022-08-23T15:52:17.444Z,26.77
2022-08-23T15:54:45.363Z,26.80
2022-08-23T15:57:17.870Z,26.84
2022-08-23T15:59:46.012Z,26.84
2022-08-23T16:02:13.909Z,26.85
2022-08-23T16:04:42.166Z,26.83
2022-08-23T16:07:13.982Z,26.81
2022-08-23T16:09:42.086Z,26.84
2022-08-23T16:12:10.317Z,26.82
2022-08-23T16:14:39.387Z,26.82
2022-08-23T16:17:08.509Z,26.82
2022-08-23T16:19:36.255Z,26.83
2022-08-23T16:22:04.052Z,26.83
2022-08-23T16:24:31.803Z,26.82
2022-08-23T16:26:59.534Z,26.80
2022-08-23T16:29:31.877Z,26.79
2022-08-23T16:32:01.423Z,26.77
2022-08-23T16:34:29.217Z,26.77
2022-08-23T16:36:59.477Z,26.75
2022-08-23T16:39:27.737Z,26.76
2022-08-23T16:41:55.734Z,26.74
2022-08-23T16:44:23.441Z,26.74
2022-08-23T16:46:52.294Z,26.72
2022-08-23T16:49:21.511Z,26.70
2022-08-23T16:51:49.935Z,26.70
2022-08-23T16:54:19.087Z,26.68
2022-08-23T16:56:47.122Z,26.66
2022-08-23T16:59:14.872Z,26.62
2022-08-23T17:01:48.271Z,26.64
2022-08-23T17:04:16.417Z,26.63
2022-08-23T17:06:46.247Z,26.63
2022-08-23T17:09:15.617Z,26.53
2022-08-23T17:11:44.780Z,26.58
2022-08-23T17:14:13.293Z,26.60
2022-08-23T17:16:41.715Z,26.58
2022-08-23T17:19:09.559Z,26.57
2022-08-23T17:21:37.507Z,26.58
2022-08-23T17:24:06.947Z,26.58
2022-08-23T17:26:35.065Z,26.61
2022-08-23T17:29:04.643Z,26.62
2022-08-23T17:31:32.468Z,26.64
2022-08-23T17:34:03.783Z,26.65
2022-08-23T17:36:37.641Z,26.65
2022-08-23T17:39:09.917Z,26.64
2022-08-23T17:41:40.072Z,26.64
2022-08-23T17:44:11.187Z,26.64
2022-08-23T17:46:40.793Z,26.61
2022-08-23T17:49:09.449Z,26.63
2022-08-23T17:51:37.723Z,26.63
2022-08-23T17:54:07.070Z,26.62
2022-08-23T17:56:34.711Z,26.61
2022-08-23T17:59:03.790Z,26.59
2022-08-23T18:01:31.479Z,26.61
2022-08-23T18:04:00.343Z,26.59
2022-08-23T18:06:28.560Z,26.59
2022-08-23T18:08:56.357Z,26.59
2022-08-23T18:11:25.470Z,26.60
2022-08-23T18:13:53.478Z,26.59
2022-08-23T18:16:21.235Z,26.58
2022-08-23T18:18:48.939Z,26.57
2022-08-23T18:21:16.629Z,26.58
2022-08-23T18:23:44.330Z,26.56
2022-08-23T18:26:34.635Z,26.55
2022-08-23T18:29:03.357Z,26.52
2022-08-23T18:31:31.303Z,26.52
2022-08-23T18:34:00.669Z,26.49
2022-08-23T18:36:29.457Z,26.48
2022-08-23T18:38:57.935Z,26.46
2022-08-23T18:41:25.782Z,26.44
2022-08-23T18:43:53.511Z,26.43
2022-08-23T18:46:23.191Z,26.40
2022-08-23T18:48:53.440Z,26.40
2022-08-23T18:51:22.238Z,26.38
2022-08-23T18:53:49.983Z,26.37
2022-08-23T18:56:17.774Z,26.35
2022-08-23T18:58:45.654Z,26.35
2022-08-23T19:01:27.478Z,26.33
2022-08-23T19:03:57.325Z,26.32
2022-08-23T19:06:25.423Z,26.30
2022-08-23T19:08:53.123Z,26.28
2022-08-23T19:11:23.188Z,26.27
2022-08-23T19:13:50.977Z,26.26
2022-08-23T19:16:21.633Z,26.25
2022-08-23T19:18:52.087Z,26.23
2022-08-23T19:21:22.115Z,26.23
2022-08-23T19:23:51.794Z,26.22
2022-08-23T19:26:22.056Z,26.22
2022-08-23T19:28:49.791Z,26.20
2022-08-23T19:31:17.543Z,26.20
2022-08-23T19:33:45.399Z,26.18
2022-08-23T19:36:35.652Z,26.19
2022-08-23T19:39:02.267Z,26.19
2022-08-23T19:41:31.140Z,26.19
2022-08-23T19:43:59.311Z,26.18
2022-08-23T19:46:27.185Z,26.17
2022-08-23T19:48:54.943Z,26.16
2022-08-23T19:51:24.696Z,26.14
2022-08-23T19:54:06.943Z,26.14
2022-08-23T19:56:43.265Z,26.14
2022-08-23T19:59:17.207Z,26.13
2022-08-23T20:01:45.290Z,26.12
2022-08-23T20:04:13.865Z,26.10
2022-08-23T20:06:43.009Z,26.08
2022-08-23T20:09:11.245Z,26.08
2022-08-23T20:11:39.546Z,26.06
2022-08-23T20:14:08.637Z,26.04
2022-08-23T20:16:38.292Z,26.02
2022-08-23T20:19:09.689Z,26.01
2022-08-23T20:21:37.997Z,25.92
2022-08-23T20:24:06.704Z,25.96
2022-08-23T20:26:40.553Z,25.95
2022-08-23T20:29:10.184Z,25.93
2022-08-23T20:31:40.711Z,25.92
2022-08-23T20:34:09.816Z,25.91
2022-08-23T20:36:37.682Z,25.88
2022-08-23T20:39:06.890Z,25.86
2022-08-23T20:41:37.659Z,25.82
2022-08-23T20:44:06.927Z,25.81
2022-08-23T20:46:34.732Z,25.80
2022-08-23T20:49:02.700Z,25.78
2022-08-23T20:51:30.740Z,25.76
2022-08-23T20:54:04.551Z,25.75
2022-08-23T20:56:34.026Z,25.73
2022-08-23T20:59:01.950Z,25.70
2022-08-23T21:01:29.807Z,25.69
2022-08-23T21:03:57.570Z,25.68
2022-08-23T21:06:28.306Z,25.67
2022-08-23T21:08:59.011Z,25.65
2022-08-23T21:11:28.780Z,25.64
2022-08-23T21:13:58.808Z,25.62
2022-08-23T21:16:26.667Z,25.61
2022-08-23T21:18:56.730Z,25.57
2022-08-23T21:21:24.511Z,25.58
2022-08-23T21:23:52.767Z,25.56
2022-08-23T21:26:22.200Z,25.56
2022-08-23T21:28:50.484Z,25.55
2022-08-23T21:31:21.523Z,25.53
2022-08-23T21:33:50.242Z,25.54
2022-08-23T21:36:20.104Z,25.54
2022-08-23T21:38:47.971Z,25.53
2022-08-23T21:41:33.529Z,25.52
2022-08-23T21:44:02.322Z,25.51
2022-08-23T21:46:31.426Z,25.50
2022-08-23T21:49:00.246Z,25.48
2022-08-23T21:51:28.125Z,25.47
2022-08-23T21:53:56.494Z,25.47
2022-08-23T21:56:24.165Z,25.46
2022-08-23T21:58:54.613Z,25.45
2022-08-23T22:01:22.427Z,25.44
2022-08-23T22:03:56.215Z,25.44
2022-08-23T22:06:25.142Z,25.44
2022-08-23T22:08:52.925Z,25.42
2022-08-23T22:11:23.555Z,25.42
2022-08-23T22:13:51.762Z,25.40
2022-08-23T22:16:19.520Z,25.38
2022-08-23T22:18:47.311Z,25.37
2022-08-23T22:21:16.370Z,25.37
2022-08-23T22:23:44.785Z,25.35
2022-08-23T22:26:14.072Z,25.34
2022-08-23T22:28:44.528Z,25.32
2022-08-23T22:31:15.053Z,25.32
2022-08-23T22:33:45.086Z,25.29
2022-08-23T22:36:14.983Z,25.27
2022-08-23T22:38:44.411Z,25.23
2022-08-23T22:41:15.818Z,25.20
2022-08-23T22:43:43.539Z,25.18
2022-08-23T22:46:12.227Z,25.16
2022-08-23T22:48:40.819Z,25.13
2022-08-23T22:51:11.270Z,25.11
2022-08-23T22:53:40.491Z,25.07
2022-08-23T22:56:12.622Z,25.07
2022-08-23T22:58:41.211Z,25.06
2022-08-23T23:01:13.490Z,25.03
2022-08-23T23:03:42.109Z,25.01
2022-08-23T23:06:10.313Z,24.96
2022-08-23T23:08:38.553Z,24.93
2022-08-23T23:11:08.412Z,24.93
2022-08-23T23:13:37.846Z,24.92
2022-08-23T23:16:08.121Z,24.89
2022-08-23T23:18:36.178Z,24.88
2022-08-23T23:21:04.925Z,24.87
2022-08-23T23:23:33.847Z,24.85
2022-08-23T23:26:02.337Z,24.85
2022-08-23T23:28:30.352Z,24.82
2022-08-23T23:30:59.571Z,24.85
2022-08-23T23:33:27.972Z,24.84
2022-08-23T23:35:55.680Z,24.82
2022-08-23T23:38:23.425Z,24.81
2022-08-23T23:40:51.334Z,24.80
2022-08-23T23:43:19.104Z,24.79
2022-08-23T23:45:47.031Z,24.78
2022-08-23T23:48:16.429Z,24.75
2022-08-23T23:50:46.538Z,24.74
2022-08-23T23:53:14.864Z,24.72
2022-08-23T23:55:43.235Z,24.71
2022-08-23T23:58:10.985Z,24.71
